Time;durP1;ratioP1;P1;durP2;ratioP2;P2;SDS_P1;SDS_P2;PMS_P1;PMS_P2;Temp;Humidity;BMP_temperature;BMP_pressure;BME280_temperature;BME280_humidity;BME280_pressure;Samples;Min_cycle;Max_cycle;Signal;HPM_P1;HPM_P2
2022/04/09 00:00:24;;;;;;;2.93;2.40;;;;;;;;;;5080857;28;24569;-52
2022/04/09 00:02:49;;;;;;;2.80;2.60;;;;;;;;;;5077878;28;24509;-53
2022/04/09 00:05:15;;;;;;;2.50;2.30;;;;;;;;;;5078017;28;24426;-52
2022/04/09 00:07:40;;;;;;;3.30;3.10;;;;;;;;;;5071194;28;24419;-52
2022/04/09 00:10:06;;;;;;;4.70;4.30;;;;;;;;;;5073460;28;24410;-52
2022/04/09 00:12:32;;;;;;;4.00;3.50;;;;;;;;;;5071111;28;24430;-51
2022/04/09 00:14:57;;;;;;;4.37;3.63;;;;;;;;;;5070840;28;25224;-52
2022/04/09 00:17:22;;;;;;;3.60;3.30;;;;;;;;;;5070451;28;24414;-52
2022/04/09 00:19:48;;;;;;;4.37;3.97;;;;;;;;;;5068344;28;24470;-53
2022/04/09 00:22:13;;;;;;;3.65;3.30;;;;;;;;;;5090133;28;24423;-52
2022/04/09 00:24:38;;;;;;;4.50;4.10;;;;;;;;;;5079892;28;24490;-52
2022/04/09 00:27:03;;;;;;;4.70;3.60;;;;;;;;;;5079775;28;24421;-52
2022/04/09 00:29:29;;;;;;;3.60;3.30;;;;;;;;;;5088967;28;24450;-52
2022/04/09 00:31:54;;;;;;;3.70;3.40;;;;;;;;;;5078611;28;24483;-51
2022/04/09 00:34:19;;;;;;;3.30;2.90;;;;;;;;;;5070099;28;24519;-52
2022/04/09 00:36:44;;;;;;;3.53;3.20;;;;;;;;;;5070749;28;24413;-52
2022/04/09 00:39:09;;;;;;;3.85;3.45;;;;;;;;;;5073224;28;24468;-51
2022/04/09 00:41:35;;;;;;;3.63;3.33;;;;;;;;;;5076748;28;24468;-52
2022/04/09 00:44:00;;;;;;;3.30;2.93;;;;;;;;;;5073788;28;24510;-52
2022/04/09 00:46:25;;;;;;;3.97;3.47;;;;;;;;;;5076225;28;24465;-52
2022/04/09 00:48:50;;;;;;;3.20;2.90;;;;;;;;;;5070986;28;24533;-52
2022/04/09 00:51:15;;;;;;;3.60;3.30;;;;;;;;;;5077617;28;24495;-52
2022/04/09 00:53:42;;;;;;;4.00;3.60;;;;;;;;;;5075478;28;24819;-52
2022/04/09 00:56:20;;;;;;;3.70;3.40;;;;;;;;;;5088600;28;24780;-52
2022/04/09 00:58:50;;;;;;;4.40;3.60;;;;;;;;;;5071540;28;24457;-52
2022/04/09 01:01:16;;;;;;;3.40;3.20;;;;;;;;;;5071297;28;24978;-53
2022/04/09 01:03:42;;;;;;;4.00;3.50;;;;;;;;;;5072440;28;24502;-52
2022/04/09 01:06:08;;;;;;;3.90;3.30;;;;;;;;;;5077409;28;24517;-52
2022/04/09 01:08:33;;;;;;;3.90;3.60;;;;;;;;;;5075636;28;24510;-53
2022/04/09 01:10:58;;;;;;;4.05;3.75;;;;;;;;;;5072866;28;24414;-53
2022/04/09 01:13:24;;;;;;;3.85;3.45;;;;;;;;;;5084186;28;24772;-52
2022/04/09 01:15:49;;;;;;;4.10;3.70;;;;;;;;;;5072993;28;24415;-52
2022/04/09 01:18:15;;;;;;;4.80;4.23;;;;;;;;;;5077630;28;24418;-52
2022/04/09 01:20:40;;;;;;;3.90;3.45;;;;;;;;;;5077195;28;24429;-52
2022/04/09 01:23:06;;;;;;;4.30;3.80;;;;;;;;;;5071770;28;24506;-53
2022/04/09 01:25:31;;;;;;;4.00;3.63;;;;;;;;;;5070346;28;24421;-52
2022/04/09 01:27:56;;;;;;;4.90;3.95;;;;;;;;;;5072593;28;24517;-52
2022/04/09 01:30:21;;;;;;;3.90;3.60;;;;;;;;;;5070297;28;24410;-53
2022/04/09 01:32:46;;;;;;;4.43;4.03;;;;;;;;;;5082355;28;24809;-53
2022/04/09 01:35:12;;;;;;;4.00;3.65;;;;;;;;;;5068853;28;24410;-53
2022/04/09 01:37:37;;;;;;;4.50;4.10;;;;;;;;;;5069879;28;24484;-53
2022/04/09 01:40:02;;;;;;;4.60;4.20;;;;;;;;;;5078935;28;24441;-53
2022/04/09 01:42:27;;;;;;;4.33;3.93;;;;;;;;;;5068639;28;24502;-53
2022/04/09 01:44:53;;;;;;;4.93;4.43;;;;;;;;;;5069770;28;24459;-54
2022/04/09 01:47:18;;;;;;;4.80;4.40;;;;;;;;;;5074874;28;24472;-52
2022/04/09 01:49:43;;;;;;;5.27;4.60;;;;;;;;;;5073691;28;24504;-53
2022/04/09 01:52:09;;;;;;;4.90;4.50;;;;;;;;;;5075858;28;24461;-52
2022/04/09 01:54:34;;;;;;;4.60;4.20;;;;;;;;;;5079714;28;24402;-52
2022/04/09 01:56:59;;;;;;;4.50;4.10;;;;;;;;;;5068311;28;25140;-53
2022/04/09 01:59:24;;;;;;;5.57;5.03;;;;;;;;;;5068219;28;24838;-52
2022/04/09 02:01:49;;;;;;;4.50;4.10;;;;;;;;;;5082153;28;24856;-53
2022/04/09 02:04:15;;;;;;;4.85;4.40;;;;;;;;;;5069354;28;24411;-54
2022/04/09 02:06:41;;;;;;;4.83;4.40;;;;;;;;;;5078498;28;25050;-53
2022/04/09 02:09:06;;;;;;;5.40;4.60;;;;;;;;;;5076593;28;25032;-52
2022/04/09 02:11:31;;;;;;;5.30;4.80;;;;;;;;;;5075965;28;24501;-53
2022/04/09 02:13:56;;;;;;;4.75;4.22;;;;;;;;;;5085684;28;24409;-53
2022/04/09 02:16:21;;;;;;;4.78;4.22;;;;;;;;;;5071216;28;24541;-53
2022/04/09 02:18:46;;;;;;;5.03;4.63;;;;;;;;;;5071821;28;24956;-53
2022/04/09 02:21:12;;;;;;;4.67;4.17;;;;;;;;;;5072679;28;24411;-52
2022/04/09 02:23:37;;;;;;;6.37;4.60;;;;;;;;;;5074243;28;24771;-52
2022/04/09 02:26:02;;;;;;;4.40;4.00;;;;;;;;;;5066870;28;25030;-52
2022/04/09 02:28:27;;;;;;;4.40;4.00;;;;;;;;;;5067866;28;24443;-53
2022/04/09 02:30:53;;;;;;;4.80;4.40;;;;;;;;;;5077138;28;24415;-53
2022/04/09 02:33:18;;;;;;;4.90;4.50;;;;;;;;;;5078089;28;24495;-52
2022/04/09 02:35:43;;;;;;;5.30;4.80;;;;;;;;;;5071711;28;24437;-53
2022/04/09 02:38:09;;;;;;;5.13;4.63;;;;;;;;;;5083432;28;24422;-53
2022/04/09 02:40:35;;;;;;;5.70;5.20;;;;;;;;;;5080096;28;24471;-52
2022/04/09 02:43:00;;;;;;;5.80;5.20;;;;;;;;;;5072600;28;24521;-53
2022/04/09 02:45:25;;;;;;;6.33;5.73;;;;;;;;;;5077177;28;24514;-52
2022/04/09 02:47:51;;;;;;;6.38;5.78;;;;;;;;;;5075143;28;24407;-53
2022/04/09 02:50:16;;;;;;;6.10;5.57;;;;;;;;;;5071159;28;24418;-53
2022/04/09 02:52:41;;;;;;;6.00;5.40;;;;;;;;;;5072386;28;24403;-52
2022/04/09 02:55:06;;;;;;;7.30;6.60;;;;;;;;;;5077148;28;24886;-52
2022/04/09 02:57:32;;;;;;;8.50;7.17;;;;;;;;;;5082465;28;24399;-53
2022/04/09 02:59:58;;;;;;;6.90;6.00;;;;;;;;;;5073811;28;24700;-53
2022/04/09 03:02:23;;;;;;;6.90;6.30;;;;;;;;;;5082042;28;24571;-53
2022/04/09 03:04:48;;;;;;;7.65;6.95;;;;;;;;;;5063413;28;24564;-52
2022/04/09 03:07:13;;;;;;;8.10;7.40;;;;;;;;;;5071143;28;24402;-53
2022/04/09 03:09:38;;;;;;;8.18;7.20;;;;;;;;;;5076693;28;24489;-53
2022/04/09 03:12:04;;;;;;;8.20;7.40;;;;;;;;;;5080756;28;24418;-53
2022/04/09 03:14:29;;;;;;;9.30;7.90;;;;;;;;;;5073152;28;24403;-52
2022/04/09 03:16:55;;;;;;;7.80;7.03;;;;;;;;;;5075184;28;24418;-53
2022/04/09 03:19:20;;;;;;;8.60;7.80;;;;;;;;;;5074483;28;24604;-53
2022/04/09 03:21:45;;;;;;;8.73;7.93;;;;;;;;;;5071315;28;24454;-52
2022/04/09 03:24:10;;;;;;;8.45;7.65;;;;;;;;;;5067773;28;24433;-53
2022/04/09 03:26:36;;;;;;;8.70;7.90;;;;;;;;;;5077575;28;25043;-53
2022/04/09 03:29:01;;;;;;;8.80;7.90;;;;;;;;;;5073208;28;24484;-52
2022/04/09 03:31:26;;;;;;;8.50;7.50;;;;;;;;;;5079815;28;24402;-52
2022/04/09 03:33:52;;;;;;;9.07;8.13;;;;;;;;;;5080880;28;24419;-54
2022/04/09 03:36:18;;;;;;;9.10;8.20;;;;;;;;;;5073232;28;24459;-53
2022/04/09 03:38:45;;;;;;;8.65;7.75;;;;;;;;;;5066242;28;24434;-52
2022/04/09 03:41:10;;;;;;;9.40;8.40;;;;;;;;;;5073636;28;24421;-52
2022/04/09 03:43:35;;;;;;;11.13;8.10;;;;;;;;;;5077781;28;24410;-52
2022/04/09 03:46:01;;;;;;;9.35;8.30;;;;;;;;;;5071648;28;24453;-52
2022/04/09 03:48:26;;;;;;;10.68;8.48;;;;;;;;;;5079356;28;24460;-53
2022/04/09 03:50:51;;;;;;;10.80;8.10;;;;;;;;;;5080259;28;24819;-52
2022/04/09 03:53:19;;;;;;;9.03;7.93;;;;;;;;;;5073528;28;24425;-53
2022/04/09 03:55:45;;;;;;;9.30;7.80;;;;;;;;;;5069900;28;25173;-53
2022/04/09 03:58:11;;;;;;;10.10;7.90;;;;;;;;;;5079220;28;24430;-52
2022/04/09 04:00:36;;;;;;;9.17;8.17;;;;;;;;;;5088725;28;24489;-52
2022/04/09 04:03:01;;;;;;;9.98;8.95;;;;;;;;;;5083878;28;24438;-53
2022/04/09 04:05:26;;;;;;;9.75;8.75;;;;;;;;;;5086032;28;24430;-52
2022/04/09 04:07:52;;;;;;;10.10;8.85;;;;;;;;;;5082581;28;24479;-52
2022/04/09 04:10:17;;;;;;;10.90;9.30;;;;;;;;;;5070301;28;24413;-53
2022/04/09 04:12:43;;;;;;;11.03;9.50;;;;;;;;;;5083715;28;24427;-53
2022/04/09 04:15:09;;;;;;;10.38;8.90;;;;;;;;;;5086777;28;24414;-52
2022/04/09 04:17:38;;;;;;;10.60;9.50;;;;;;;;;;5077858;28;24427;-52
2022/04/09 04:20:05;;;;;;;11.30;9.48;;;;;;;;;;5075875;28;24456;-52
2022/04/09 04:22:30;;;;;;;10.23;9.13;;;;;;;;;;5073231;28;24421;-51
2022/04/09 04:24:55;;;;;;;11.13;9.13;;;;;;;;;;5073278;28;24403;-52
2022/04/09 04:27:20;;;;;;;10.15;8.32;;;;;;;;;;5083091;28;24471;-52
2022/04/09 04:29:45;;;;;;;10.40;9.27;;;;;;;;;;5080275;28;25019;-52
2022/04/09 04:32:10;;;;;;;10.43;8.80;;;;;;;;;;5072045;28;24425;-53
2022/04/09 04:34:36;;;;;;;11.05;8.30;;;;;;;;;;5080608;28;24411;-52
2022/04/09 04:37:01;;;;;;;12.67;8.50;;;;;;;;;;5075435;28;24426;-52
2022/04/09 04:39:26;;;;;;;8.75;7.57;;;;;;;;;;5078474;28;24514;-52
2022/04/09 04:41:51;;;;;;;9.77;7.97;;;;;;;;;;5081561;28;24464;-52
2022/04/09 04:44:16;;;;;;;9.43;7.57;;;;;;;;;;5081768;28;24745;-52
2022/04/09 04:46:41;;;;;;;10.55;7.10;;;;;;;;;;5072870;28;24533;-52
2022/04/09 04:49:07;;;;;;;9.77;7.00;;;;;;;;;;5080917;28;24422;-52
2022/04/09 04:51:32;;;;;;;11.43;6.20;;;;;;;;;;5075800;28;24447;-52
2022/04/09 04:53:58;;;;;;;11.80;6.60;;;;;;;;;;5071776;28;24553;-51
2022/04/09 04:56:24;;;;;;;11.20;6.40;;;;;;;;;;5076085;28;25103;-51
2022/04/09 04:58:49;;;;;;;7.90;5.80;;;;;;;;;;5075424;28;24506;-52
2022/04/09 05:01:14;;;;;;;8.20;6.20;;;;;;;;;;5073517;28;24468;-53
2022/04/09 05:03:39;;;;;;;10.02;6.00;;;;;;;;;;5072862;28;24510;-53
2022/04/09 05:06:05;;;;;;;8.60;6.20;;;;;;;;;;5067400;28;24488;-52
2022/04/09 05:08:30;;;;;;;8.23;6.40;;;;;;;;;;5072148;28;24408;-52
2022/04/09 05:10:55;;;;;;;9.95;6.55;;;;;;;;;;5068432;28;24418;-53
2022/04/09 05:13:20;;;;;;;10.63;6.70;;;;;;;;;;5072241;28;24560;-52
2022/04/09 05:15:45;;;;;;;8.40;6.40;;;;;;;;;;5071882;28;24456;-52
2022/04/09 05:18:11;;;;;;;6.90;5.63;;;;;;;;;;5069593;28;24413;-52
2022/04/09 05:20:36;;;;;;;7.80;6.20;;;;;;;;;;5068632;28;24502;-52
2022/04/09 05:23:02;;;;;;;9.68;6.30;;;;;;;;;;5067832;28;24452;-52
2022/04/09 05:25:31;;;;;;;7.13;5.70;;;;;;;;;;5072265;28;24457;-52
2022/04/09 05:27:56;;;;;;;7.43;5.60;;;;;;;;;;5072790;28;24547;-52
2022/04/09 05:30:23;;;;;;;8.50;5.80;;;;;;;;;;5072048;28;24917;-52
2022/04/09 05:32:48;;;;;;;9.20;5.95;;;;;;;;;;5072099;28;24411;-52
2022/04/09 05:35:13;;;;;;;14.83;6.47;;;;;;;;;;5078320;28;24838;-52
2022/04/09 05:37:42;;;;;;;7.40;6.00;;;;;;;;;;5080792;28;24968;-52
2022/04/09 05:40:07;;;;;;;8.63;5.77;;;;;;;;;;5075220;28;24574;-51
2022/04/09 05:42:32;;;;;;;6.30;5.17;;;;;;;;;;5075171;28;24978;-52
2022/04/09 05:44:57;;;;;;;7.67;5.30;;;;;;;;;;5069178;28;24406;-52
2022/04/09 05:47:24;;;;;;;8.85;5.50;;;;;;;;;;5069942;28;24417;-52
2022/04/09 05:49:50;;;;;;;7.63;5.20;;;;;;;;;;5068099;28;24700;-52
2022/04/09 05:52:15;;;;;;;6.28;5.15;;;;;;;;;;5068759;28;24477;-52
2022/04/09 05:54:40;;;;;;;6.50;5.10;;;;;;;;;;5070930;28;24770;-52
2022/04/09 05:57:06;;;;;;;6.13;4.70;;;;;;;;;;5069849;28;24929;-52
2022/04/09 05:59:31;;;;;;;8.03;5.00;;;;;;;;;;5079979;28;25003;-52
2022/04/09 06:01:56;;;;;;;5.40;4.90;;;;;;;;;;5071294;28;24421;-51
2022/04/09 06:04:45;;;;;;;7.10;5.43;;;;;;;;;;5079170;28;24955;-53
2022/04/09 06:07:13;;;;;;;9.48;5.10;;;;;;;;;;5072256;28;24438;-52
2022/04/09 06:09:38;;;;;;;7.15;5.10;;;;;;;;;;5072715;28;24992;-52
2022/04/09 06:12:06;;;;;;;6.07;4.60;;;;;;;;;;5071961;28;24432;-51
2022/04/09 06:14:31;;;;;;;5.82;5.13;;;;;;;;;;5079492;28;24403;-52
2022/04/09 06:16:56;;;;;;;6.07;4.72;;;;;;;;;;5071274;28;24540;-52
2022/04/09 06:19:21;;;;;;;6.72;4.60;;;;;;;;;;5081365;28;24991;-52
2022/04/09 06:21:46;;;;;;;7.50;4.60;;;;;;;;;;5071734;28;24514;-52
2022/04/09 06:24:12;;;;;;;6.88;5.03;;;;;;;;;;5075484;28;24414;-51
2022/04/09 06:26:37;;;;;;;5.60;5.00;;;;;;;;;;5070471;28;24437;-52
2022/04/09 06:29:02;;;;;;;5.35;4.68;;;;;;;;;;5064029;28;24851;-53
2022/04/09 06:31:27;;;;;;;5.82;3.67;;;;;;;;;;5066392;28;24430;-52
2022/04/09 06:33:53;;;;;;;7.20;3.57;;;;;;;;;;5068924;28;24451;-51
2022/04/09 06:36:18;;;;;;;6.50;3.90;;;;;;;;;;5072604;28;24425;-53
2022/04/09 06:38:43;;;;;;;7.50;4.17;;;;;;;;;;5076341;28;24530;-52
2022/04/09 06:41:08;;;;;;;8.17;3.80;;;;;;;;;;5075459;28;24781;-52
2022/04/09 06:43:34;;;;;;;6.93;4.18;;;;;;;;;;5075720;28;24427;-52
2022/04/09 06:45:59;;;;;;;3.95;3.03;;;;;;;;;;5080531;28;24426;-51
2022/04/09 06:48:24;;;;;;;5.10;3.20;;;;;;;;;;5073284;28;24468;-51
2022/04/09 06:50:49;;;;;;;4.45;3.10;;;;;;;;;;5077913;28;24418;-53
2022/04/09 06:53:14;;;;;;;4.20;3.20;;;;;;;;;;5065924;28;24448;-54
2022/04/09 06:55:41;;;;;;;5.10;3.03;;;;;;;;;;5073106;28;24482;-52
2022/04/09 06:58:06;;;;;;;3.67;3.28;;;;;;;;;;5068933;28;24418;-53
2022/04/09 07:00:33;;;;;;;4.22;3.20;;;;;;;;;;5067340;28;24961;-52
2022/04/09 07:02:58;;;;;;;7.47;4.05;;;;;;;;;;5073588;28;24425;-52
2022/04/09 07:05:23;;;;;;;4.03;3.20;;;;;;;;;;5080464;28;24773;-52
2022/04/09 07:07:49;;;;;;;5.18;3.03;;;;;;;;;;5077651;28;24952;-54
2022/04/09 07:10:15;;;;;;;4.37;3.00;;;;;;;;;;5071000;28;25231;-52
2022/04/09 07:12:40;;;;;;;4.93;3.10;;;;;;;;;;5080943;28;24430;-53
2022/04/09 07:15:06;;;;;;;5.20;2.50;;;;;;;;;;5083206;28;24991;-52
2022/04/09 07:17:31;;;;;;;5.68;3.30;;;;;;;;;;5078990;28;24411;-52
2022/04/09 07:20:04;;;;;;;6.13;3.10;;;;;;;;;;5078909;28;24421;-52
2022/04/09 07:22:30;;;;;;;6.30;3.55;;;;;;;;;;5077900;28;25958;-52
2022/04/09 07:24:55;;;;;;;5.50;3.77;;;;;;;;;;5077451;28;24995;-52
2022/04/09 07:27:21;;;;;;;6.03;4.60;;;;;;;;;;5085213;28;24413;-52
2022/04/09 07:29:46;;;;;;;7.20;4.90;;;;;;;;;;5076312;28;25060;-52
2022/04/09 07:32:12;;;;;;;6.78;5.28;;;;;;;;;;5082853;28;24455;-52
2022/04/09 07:34:37;;;;;;;7.00;6.30;;;;;;;;;;5090309;28;24406;-51
2022/04/09 07:37:03;;;;;;;8.63;7.82;;;;;;;;;;5076431;28;24517;-51
2022/04/09 07:39:28;;;;;;;9.48;8.50;;;;;;;;;;5070085;28;24410;-51
2022/04/09 07:41:53;;;;;;;9.15;8.20;;;;;;;;;;5086848;28;24542;-51
2022/04/09 07:44:19;;;;;;;9.32;8.35;;;;;;;;;;5083994;28;24419;-51
2022/04/09 07:46:44;;;;;;;9.20;8.20;;;;;;;;;;5074804;28;25003;-51
2022/04/09 07:49:09;;;;;;;7.97;7.07;;;;;;;;;;5088413;28;24966;-51
2022/04/09 07:51:34;;;;;;;7.05;6.40;;;;;;;;;;5080768;28;24426;-51
2022/04/09 07:53:59;;;;;;;8.13;7.30;;;;;;;;;;5081161;28;24427;-51
2022/04/09 07:56:24;;;;;;;7.30;6.60;;;;;;;;;;5079252;28;24875;-52
2022/04/09 07:58:50;;;;;;;8.80;7.90;;;;;;;;;;5073871;28;24406;-52
2022/04/09 08:01:15;;;;;;;8.07;7.32;;;;;;;;;;5083578;28;24933;-52
2022/04/09 08:03:40;;;;;;;9.38;8.45;;;;;;;;;;5090030;28;24823;-52
2022/04/09 08:06:05;;;;;;;10.77;8.80;;;;;;;;;;5102493;28;24433;-52
2022/04/09 08:08:31;;;;;;;10.00;9.10;;;;;;;;;;5110475;28;25208;-51
2022/04/09 08:10:56;;;;;;;10.48;9.20;;;;;;;;;;5087436;28;24418;-51
2022/04/09 08:13:21;;;;;;;9.80;8.83;;;;;;;;;;5085337;28;24421;-52
2022/04/09 08:15:46;;;;;;;9.37;7.53;;;;;;;;;;5079654;28;24425;-51
2022/04/09 08:18:11;;;;;;;9.40;8.43;;;;;;;;;;5077923;28;24468;-52
2022/04/09 08:20:37;;;;;;;11.00;9.80;;;;;;;;;;5086958;28;24483;-51
2022/04/09 08:23:03;;;;;;;10.73;9.63;;;;;;;;;;5095672;28;24559;-53
2022/04/09 08:25:28;;;;;;;11.50;10.40;;;;;;;;;;5089792;28;24856;-51
2022/04/09 08:27:54;;;;;;;10.43;9.50;;;;;;;;;;5087539;28;24505;-52
2022/04/09 08:30:19;;;;;;;11.10;10.00;;;;;;;;;;5073551;28;24765;-51
2022/04/09 08:32:45;;;;;;;10.70;9.53;;;;;;;;;;5078629;28;24422;-52
2022/04/09 08:35:10;;;;;;;10.90;9.80;;;;;;;;;;5068600;28;24432;-51
2022/04/09 08:37:35;;;;;;;12.50;10.50;;;;;;;;;;5069332;28;24425;-52
2022/04/09 08:40:01;;;;;;;11.13;9.43;;;;;;;;;;5081470;28;24868;-52
2022/04/09 08:42:28;;;;;;;12.33;10.97;;;;;;;;;;5084333;28;24441;-52
2022/04/09 08:44:53;;;;;;;10.50;9.40;;;;;;;;;;5075253;28;24770;-52
2022/04/09 08:47:18;;;;;;;11.30;10.10;;;;;;;;;;5086357;28;24951;-52
2022/04/09 08:49:47;;;;;;;13.63;10.43;;;;;;;;;;5084163;28;24394;-52
2022/04/09 08:52:12;;;;;;;10.37;9.30;;;;;;;;;;5074746;28;24496;-52
2022/04/09 08:54:38;;;;;;;9.30;8.40;;;;;;;;;;5081210;28;24464;-52
2022/04/09 08:57:03;;;;;;;8.70;7.63;;;;;;;;;;5069109;28;24398;-52
2022/04/09 08:59:29;;;;;;;9.40;8.57;;;;;;;;;;5078441;28;24457;-53
2022/04/09 09:01:54;;;;;;;9.37;8.37;;;;;;;;;;5089380;28;25061;-52
2022/04/09 09:04:19;;;;;;;9.20;8.20;;;;;;;;;;5074780;28;24414;-52
2022/04/09 09:06:45;;;;;;;9.40;7.30;;;;;;;;;;5068493;28;25158;-52
2022/04/09 09:09:24;;;;;;;9.00;7.30;;;;;;;;;;5068167;28;24386;-53
2022/04/09 09:11:49;;;;;;;7.85;6.63;;;;;;;;;;5088376;28;24398;-52
2022/04/09 09:14:24;;;;;;;6.17;4.70;;;;;;;;;;5088670;28;24386;-52
2022/04/09 09:16:49;;;;;;;5.88;4.40;;;;;;;;;;5088565;28;24784;-52
2022/04/09 09:19:15;;;;;;;7.30;4.30;;;;;;;;;;5087999;28;24951;-52
2022/04/09 09:21:50;;;;;;;4.10;3.70;;;;;;;;;;5083240;28;24407;-52
2022/04/09 09:24:16;;;;;;;5.67;3.90;;;;;;;;;;5067788;28;24519;-53
2022/04/09 09:26:42;;;;;;;5.03;3.80;;;;;;;;;;5069916;28;24511;-52
2022/04/09 09:29:08;;;;;;;4.20;3.50;;;;;;;;;;5077638;28;24991;-53
2022/04/09 09:31:41;;;;;;;5.05;3.30;;;;;;;;;;5077474;28;24457;-51
2022/04/09 09:34:09;;;;;;;3.28;2.97;;;;;;;;;;5071837;28;24944;-53
2022/04/09 09:36:34;;;;;;;3.72;3.40;;;;;;;;;;5070032;28;24534;-52
2022/04/09 09:39:06;;;;;;;4.43;3.30;;;;;;;;;;5080733;28;24645;-52
2022/04/09 09:41:31;;;;;;;3.80;3.23;;;;;;;;;;5072252;28;24419;-52
2022/04/09 09:44:05;;;;;;;4.67;3.63;;;;;;;;;;5090395;28;24429;-53
2022/04/09 09:46:31;;;;;;;3.70;3.40;;;;;;;;;;5078130;28;24433;-52
2022/04/09 09:48:56;;;;;;;3.72;3.42;;;;;;;;;;5086658;28;24426;-52
2022/04/09 09:51:25;;;;;;;5.03;3.43;;;;;;;;;;5075952;28;24414;-52
2022/04/09 09:54:02;;;;;;;3.70;3.30;;;;;;;;;;5067825;28;24441;-53
2022/04/09 09:56:35;;;;;;;4.30;3.90;;;;;;;;;;5072152;28;24428;-52
2022/04/09 09:59:00;;;;;;;4.20;3.80;;;;;;;;;;5078018;28;24417;-52
2022/04/09 10:01:26;;;;;;;4.10;3.70;;;;;;;;;;5074241;28;24415;-53
2022/04/09 10:03:52;;;;;;;4.25;3.85;;;;;;;;;;5073169;28;24419;-52
2022/04/09 10:06:17;;;;;;;4.50;4.10;;;;;;;;;;5067688;28;24500;-52
2022/04/09 10:08:42;;;;;;;4.40;4.00;;;;;;;;;;5075464;28;24411;-52
2022/04/09 10:11:08;;;;;;;4.40;4.00;;;;;;;;;;5085087;28;24417;-52
2022/04/09 10:13:34;;;;;;;4.10;3.80;;;;;;;;;;5078225;28;24889;-52
2022/04/09 10:16:01;;;;;;;3.10;2.85;;;;;;;;;;5079886;28;24431;-52
2022/04/09 10:18:26;;;;;;;3.47;2.53;;;;;;;;;;5070339;28;24414;-51
2022/04/09 10:20:53;;;;;;;3.20;2.25;;;;;;;;;;5085349;28;24966;-51
2022/04/09 10:23:19;;;;;;;2.33;2.13;;;;;;;;;;5070772;28;24429;-52
2022/04/09 10:25:46;;;;;;;3.20;3.00;;;;;;;;;;5070328;28;24434;-52
2022/04/09 10:28:11;;;;;;;2.90;2.70;;;;;;;;;;5077063;28;24430;-52
2022/04/09 10:30:39;;;;;;;2.90;2.30;;;;;;;;;;5069405;28;24476;-52
2022/04/09 10:33:19;;;;;;;3.70;2.30;;;;;;;;;;5076035;28;24409;-52
2022/04/09 10:35:46;;;;;;;2.78;2.50;;;;;;;;;;5070846;28;25253;-53
2022/04/09 10:38:15;;;;;;;3.97;2.83;;;;;;;;;;5072659;28;24421;-53
2022/04/09 10:40:43;;;;;;;3.20;2.50;;;;;;;;;;5072755;28;24431;-52
2022/04/09 10:43:33;;;;;;;2.70;2.50;;;;;;;;;;5066650;28;24418;-52
2022/04/09 10:46:00;;;;;;;3.23;2.67;;;;;;;;;;5067003;28;24446;-52
2022/04/09 10:48:33;;;;;;;3.10;2.80;;;;;;;;;;5070772;28;24443;-53
2022/04/09 10:50:59;;;;;;;2.80;2.60;;;;;;;;;;5069107;28;24411;-53
2022/04/09 10:53:26;;;;;;;3.30;3.00;;;;;;;;;;5077115;28;24778;-53
2022/04/09 10:56:26;;;;;;;3.22;2.63;;;;;;;;;;5074642;28;24848;-53
2022/04/09 10:59:11;;;;;;;3.35;3.05;;;;;;;;;;5079215;28;24413;-52
2022/04/09 11:01:48;;;;;;;4.35;3.30;;;;;;;;;;5084080;28;25033;-53
2022/04/09 11:04:29;;;;;;;3.80;3.50;;;;;;;;;;5075877;28;24437;-52
2022/04/09 11:07:14;;;;;;;4.40;3.80;;;;;;;;;;5066331;28;25031;-52
2022/04/09 11:10:06;;;;;;;2.80;2.50;;;;;;;;;;5058585;28;24422;-52
2022/04/09 11:12:31;;;;;;;2.70;2.50;;;;;;;;;;5070474;28;25041;-51
2022/04/09 11:14:57;;;;;;;3.25;2.55;;;;;;;;;;5072168;28;24427;-51
2022/04/09 11:17:25;;;;;;;2.80;2.60;;;;;;;;;;5068768;28;24774;-51
2022/04/09 11:19:51;;;;;;;3.17;2.60;;;;;;;;;;5084625;28;24445;-51
2022/04/09 11:22:17;;;;;;;3.30;2.60;;;;;;;;;;5075503;28;24777;-51
2022/04/09 11:24:42;;;;;;;2.88;2.67;;;;;;;;;;5071265;28;24998;-52
2022/04/09 11:27:07;;;;;;;2.90;2.70;;;;;;;;;;5077353;28;24434;-52
2022/04/09 11:29:33;;;;;;;3.10;2.80;;;;;;;;;;5070922;28;25007;-52
2022/04/09 11:31:59;;;;;;;3.50;3.20;;;;;;;;;;5078715;28;24422;-52
2022/04/09 11:34:25;;;;;;;3.77;3.47;;;;;;;;;;5079984;28;24411;-52
2022/04/09 11:36:51;;;;;;;4.30;3.90;;;;;;;;;;5070927;28;24419;-52
2022/04/09 11:39:17;;;;;;;4.10;3.80;;;;;;;;;;5068598;28;24418;-52
2022/04/09 11:41:45;;;;;;;4.40;4.00;;;;;;;;;;5077981;28;24422;-52
2022/04/09 11:44:25;;;;;;;4.20;3.80;;;;;;;;;;5068775;28;24415;-52
2022/04/09 11:46:50;;;;;;;5.43;4.10;;;;;;;;;;5067188;28;24434;-53
2022/04/09 11:49:15;;;;;;;4.10;3.80;;;;;;;;;;5081583;28;24406;-53
2022/04/09 11:51:40;;;;;;;4.30;3.90;;;;;;;;;;5075217;28;24411;-52
2022/04/09 11:54:18;;;;;;;3.80;3.50;;;;;;;;;;5067579;28;24914;-53
2022/04/09 11:56:43;;;;;;;4.00;3.70;;;;;;;;;;5062203;28;24995;-53
2022/04/09 11:59:10;;;;;;;4.53;4.03;;;;;;;;;;5073028;28;24461;-52
2022/04/09 12:01:36;;;;;;;3.95;3.65;;;;;;;;;;5075028;28;24432;-53
2022/04/09 12:04:02;;;;;;;2.72;2.50;;;;;;;;;;5066454;28;25248;-53
2022/04/09 12:06:27;;;;;;;3.20;3.00;;;;;;;;;;5071928;28;24434;-52
2022/04/09 12:08:52;;;;;;;2.80;2.60;;;;;;;;;;5082762;28;24411;-53
2022/04/09 12:11:19;;;;;;;3.40;3.20;;;;;;;;;;5065622;28;24415;-53
2022/04/09 12:13:45;;;;;;;3.27;2.97;;;;;;;;;;5063781;28;24461;-54
2022/04/09 12:16:10;;;;;;;2.88;2.67;;;;;;;;;;5067986;28;24747;-53
2022/04/09 12:18:36;;;;;;;3.90;3.50;;;;;;;;;;5084778;28;25065;-52
2022/04/09 12:21:21;;;;;;;3.70;3.40;;;;;;;;;;5077136;28;24417;-53
2022/04/09 12:23:46;;;;;;;3.70;3.40;;;;;;;;;;5068141;28;24445;-54
2022/04/09 12:26:25;;;;;;;3.80;3.60;;;;;;;;;;5068413;28;24781;-53
2022/04/09 12:29:08;;;;;;;3.70;3.40;;;;;;;;;;5080579;28;24511;-53
2022/04/09 12:31:34;;;;;;;3.40;3.10;;;;;;;;;;5081361;28;24411;-50
2022/04/09 12:34:00;;;;;;;3.35;3.10;;;;;;;;;;5077808;28;24445;-51
2022/04/09 12:36:25;;;;;;;4.10;3.20;;;;;;;;;;5067677;28;24422;-51
2022/04/09 12:38:50;;;;;;;3.70;3.40;;;;;;;;;;5067853;28;24513;-53
2022/04/09 12:41:15;;;;;;;3.10;2.80;;;;;;;;;;5066410;28;24533;-51
2022/04/09 12:43:42;;;;;;;2.60;2.08;;;;;;;;;;5066431;28;24824;-52
2022/04/09 12:46:09;;;;;;;2.60;2.40;;;;;;;;;;5072430;28;24426;-52
2022/04/09 12:48:38;;;;;;;2.40;1.80;;;;;;;;;;5082141;28;24421;-52
2022/04/09 12:51:03;;;;;;;1.70;1.60;;;;;;;;;;5064983;28;24425;-52
2022/04/09 12:53:28;;;;;;;1.60;1.50;;;;;;;;;;5074178;28;24422;-51
2022/04/09 12:55:54;;;;;;;2.90;1.90;;;;;;;;;;5077404;28;24474;-52
2022/04/09 12:58:19;;;;;;;2.50;2.00;;;;;;;;;;5075383;28;24777;-52
2022/04/09 13:00:44;;;;;;;3.77;2.40;;;;;;;;;;5068894;28;24422;-52
2022/04/09 13:03:09;;;;;;;2.80;1.92;;;;;;;;;;5069223;28;24452;-52
2022/04/09 13:05:34;;;;;;;2.07;1.97;;;;;;;;;;5077737;28;24529;-52
2022/04/09 13:08:00;;;;;;;2.83;2.00;;;;;;;;;;5079916;28;24508;-52
2022/04/09 13:10:25;;;;;;;3.17;2.50;;;;;;;;;;5072443;28;24510;-51
2022/04/09 13:12:50;;;;;;;2.60;2.40;;;;;;;;;;5065592;28;24948;-52
2022/04/09 13:15:16;;;;;;;2.70;2.10;;;;;;;;;;5077461;28;24513;-52
2022/04/09 13:17:41;;;;;;;2.30;2.10;;;;;;;;;;5065215;28;24928;-52
2022/04/09 13:20:07;;;;;;;2.93;2.73;;;;;;;;;;5071601;28;24450;-52
2022/04/09 13:22:33;;;;;;;2.40;2.20;;;;;;;;;;5067596;28;24991;-52
2022/04/09 13:24:58;;;;;;;2.60;2.40;;;;;;;;;;5069426;28;24411;-52
2022/04/09 13:27:23;;;;;;;2.80;2.60;;;;;;;;;;5079726;28;24418;-52
2022/04/09 13:29:48;;;;;;;3.90;2.55;;;;;;;;;;5075590;28;24443;-52
2022/04/09 13:32:14;;;;;;;2.20;2.00;;;;;;;;;;5074772;28;25019;-51
2022/04/09 13:34:39;;;;;;;2.10;1.90;;;;;;;;;;5083251;28;24421;-52
2022/04/09 13:37:04;;;;;;;2.13;1.90;;;;;;;;;;5075194;28;24916;-52
2022/04/09 13:39:29;;;;;;;2.87;2.20;;;;;;;;;;5076979;28;24939;-51
2022/04/09 13:41:55;;;;;;;2.50;2.30;;;;;;;;;;5081915;28;24414;-52
2022/04/09 13:44:20;;;;;;;2.57;2.37;;;;;;;;;;5074740;28;24429;-53
2022/04/09 13:46:45;;;;;;;4.80;3.10;;;;;;;;;;5071557;28;25117;-53
2022/04/09 13:49:10;;;;;;;4.17;3.00;;;;;;;;;;5072853;28;24502;-53
2022/04/09 13:51:36;;;;;;;2.50;2.13;;;;;;;;;;5073638;28;25368;-53
2022/04/09 13:54:01;;;;;;;2.92;2.25;;;;;;;;;;5065745;28;24472;-52
2022/04/09 13:56:26;;;;;;;2.15;1.95;;;;;;;;;;5068095;28;24463;-52
2022/04/09 13:58:51;;;;;;;6.07;3.60;;;;;;;;;;5067414;28;24453;-52
2022/04/09 14:01:16;;;;;;;2.10;2.00;;;;;;;;;;5069514;28;24513;-52
2022/04/09 14:03:42;;;;;;;3.50;2.80;;;;;;;;;;5087966;28;24478;-52
2022/04/09 14:06:07;;;;;;;3.10;2.70;;;;;;;;;;5087620;28;25021;-52
2022/04/09 14:08:32;;;;;;;3.28;2.97;;;;;;;;;;5087643;28;25177;-52
2022/04/09 14:10:57;;;;;;;6.60;6.05;;;;;;;;;;5087684;28;25056;-52
2022/04/09 14:13:23;;;;;;;3.07;2.70;;;;;;;;;;5085896;28;24421;-51
2022/04/09 14:15:48;;;;;;;2.50;2.30;;;;;;;;;;5087539;28;24398;-51
2022/04/09 14:18:13;;;;;;;3.10;2.80;;;;;;;;;;5087969;28;24978;-51
2022/04/09 14:20:39;;;;;;;4.70;4.17;;;;;;;;;;5087017;28;24391;-51
2022/04/09 14:23:04;;;;;;;3.63;2.30;;;;;;;;;;5085628;28;24509;-51
2022/04/09 14:25:30;;;;;;;2.30;2.10;;;;;;;;;;5087526;28;24544;-51
2022/04/09 14:27:56;;;;;;;2.00;1.90;;;;;;;;;;5087115;28;24513;-51
2022/04/09 14:30:22;;;;;;;2.80;1.90;;;;;;;;;;5087343;28;24487;-51
2022/04/09 14:32:47;;;;;;;3.22;2.00;;;;;;;;;;5085260;28;25264;-51
2022/04/09 14:35:15;;;;;;;2.60;1.80;;;;;;;;;;5087370;28;24494;-51